Time;durP1;ratioP1;P1;durP2;ratioP2;P2;SDS_P1;SDS_P2;PMS_P1;PMS_P2;Temp;Humidity;BMP_temperature;BMP_pressure;BME280_temperature;BME280_humidity;BME280_pressure;Samples;Min_cycle;Max_cycle;Signal;HPM_P1;HPM_P2
2022/11/12 00:02:32;;;;;;;;;;;;;;;5.24;85.97;99689.91;5118770;27;19934;-57
2022/11/12 00:05:18;;;;;;;;;;;;;;;5.12;85.36;99686.38;5120192;27;20406;-53
2022/11/12 00:08:05;;;;;;;;;;;;;;;4.96;86.48;99679.78;5123932;27;19988;-58
2022/11/12 00:10:53;;;;;;;;;;;;;;;4.97;86.50;99676.03;5128350;27;20017;-56
2022/11/12 00:13:40;;;;;;;;;;;;;;;4.96;86.21;99685.19;5125477;27;20024;-56
2022/11/12 00:16:29;;;;;;;;;;;;;;;5.01;85.91;99677.22;5129103;27;19923;-56
2022/11/12 00:19:40;;;;;;;;;;;;;;;5.08;85.92;99680.63;5129509;27;19958;-56
2022/11/12 00:22:27;;;;;;;;;;;;;;;4.93;86.09;99680.25;5140856;27;20011;-57
2022/11/12 00:25:14;;;;;;;;;;;;;;;4.85;86.33;99681.41;5121132;27;19931;-58
2022/11/12 00:28:02;;;;;;;;;;;;;;;4.87;86.24;99681.16;5131308;27;19931;-56
2022/11/12 00:30:49;;;;;;;;;;;;;;;4.97;85.63;99682.25;5134304;27;19930;-57
2022/11/12 00:33:42;;;;;;;;;;;;;;;4.76;86.35;99682.78;5123887;27;19968;-57
2022/11/12 00:36:29;;;;;;;;;;;;;;;4.92;86.07;99681.28;5133295;27;20403;-57
2022/11/12 00:39:15;;;;;;;;;;;;;;;4.89;85.71;99679.88;5129707;27;20436;-57
2022/11/12 00:42:03;;;;;;;;;;;;;;;4.92;85.51;99676.72;5132449;27;20283;-57
2022/11/12 00:44:49;;;;;;;;;;;;;;;4.78;86.15;99677.97;5125318;27;19931;-57
2022/11/12 00:47:36;;;;;;;;;;;;;;;4.92;85.40;99670.53;5139628;27;20041;-57
2022/11/12 00:50:24;;;;;;;;;;;;;;;4.92;85.36;99662.44;5129336;27;19927;-57
2022/11/12 00:53:11;;;;;;;;;;;;;;;4.94;85.60;99668.41;5128158;27;19931;-57
2022/11/12 00:55:59;;;;;;;;;;;;;;;4.88;85.82;99664.75;5133237;27;19931;-58
2022/11/12 00:58:46;;;;;;;;;;;;;;;4.93;85.54;99658.69;5126291;27;20348;-56
2022/11/12 01:01:33;;;;;;;;;;;;;;;4.93;85.83;99658.69;5128129;27;20023;-56
2022/11/12 01:04:26;;;;;;;;;;;;;;;4.97;85.57;99646.41;5120473;27;19931;-56
2022/11/12 01:07:15;;;;;;;;;;;;;;;4.94;85.32;99653.06;5117171;27;19931;-57
2022/11/12 01:10:01;;;;;;;;;;;;;;;4.85;85.76;99662.56;5124332;27;19931;-57
2022/11/12 01:12:48;;;;;;;;;;;;;;;4.96;85.69;99653.66;5131065;27;20052;-57
2022/11/12 01:15:40;;;;;;;;;;;;;;;5.07;85.40;99656.63;5116944;27;20403;-57
2022/11/12 01:18:33;;;;;;;;;;;;;;;4.95;85.55;99656.56;5124191;27;19934;-57
2022/11/12 01:21:21;;;;;;;;;;;;;;;4.82;86.08;99651.41;5124912;27;19945;-57
2022/11/12 01:24:09;;;;;;;;;;;;;;;4.83;85.63;99653.03;5132526;27;19934;-58
2022/11/12 01:26:55;;;;;;;;;;;;;;;4.99;85.67;99641.59;5131784;27;19931;-57
2022/11/12 01:29:42;;;;;;;;;;;;;;;5.03;85.09;99644.66;5129637;27;20595;-57
2022/11/12 01:32:29;;;;;;;;;;;;;;;4.87;84.97;99638.91;5112813;27;19934;-57
2022/11/12 01:35:40;;;;;;;;;;;;;;;4.99;84.88;99641.59;5127448;27;20381;-58
2022/11/12 01:38:52;;;;;;;;;;;;;;;5.07;85.06;99643.97;5125373;27;20406;-55
2022/11/12 01:41:40;;;;;;;;;;;;;;;5.03;84.88;99633.88;5123214;27;20399;-56
2022/11/12 01:44:30;;;;;;;;;;;;;;;4.94;84.93;99633.41;5125990;27;19930;-57
2022/11/12 01:47:18;;;;;;;;;;;;;;;5.06;84.92;99628.00;5130605;28;20608;-57
2022/11/12 01:50:06;;;;;;;;;;;;;;;5.07;84.77;99626.97;5125944;28;19951;-57
2022/11/12 01:52:53;;;;;;;;;;;;;;;5.15;84.10;99626.63;5124292;28;20003;-57
2022/11/12 01:55:40;;;;;;;;;;;;;;;5.14;83.92;99631.19;5127498;27;19930;-57
2022/11/12 01:58:28;;;;;;;;;;;;;;;5.08;84.44;99626.75;5122238;27;20386;-57
2022/11/12 02:01:40;;;;;;;;;;;;;;;5.08;84.19;99629.44;5124571;27;19942;-57
2022/11/12 02:04:26;;;;;;;;;;;;;;;5.07;84.17;99622.41;5113942;27;20040;-57
2022/11/12 02:07:21;;;;;;;;;;;;;;;5.13;83.98;99626.03;5118617;28;19931;-56
2022/11/12 02:10:09;;;;;;;;;;;;;;;5.20;83.31;99626.75;5123201;27;19930;-56
2022/11/12 02:16:01;;;;;;;;;;;;;;;5.15;83.71;99622.06;5133850;27;19930;-56
2022/11/12 02:18:47;;;;;;;;;;;;;;;5.20;83.62;99632.13;5129435;27;19978;-56
2022/11/12 02:21:35;;;;;;;;;;;;;;;5.20;83.34;99627.56;5119972;27;20147;-57
2022/11/12 02:24:31;;;;;;;;;;;;;;;5.12;84.17;99630.63;5134936;27;20398;-57
2022/11/12 02:27:18;;;;;;;;;;;;;;;5.00;84.88;99621.69;5126367;27;20291;-55
2022/11/12 02:30:05;;;;;;;;;;;;;;;5.02;84.44;99630.38;5135442;27;19930;-57
2022/11/12 02:32:52;;;;;;;;;;;;;;;5.05;84.71;99624.50;5135464;27;20456;-55
2022/11/12 02:35:39;;;;;;;;;;;;;;;5.05;84.28;99629.88;5131004;27;20064;-57
2022/11/12 02:38:51;;;;;;;;;;;;;;;4.99;84.55;99625.44;5134351;27;20311;-56
2022/11/12 02:41:39;;;;;;;;;;;;;;;5.08;84.63;99624.03;5122862;27;19931;-57
2022/11/12 02:44:26;;;;;;;;;;;;;;;5.02;84.93;99616.09;5128412;27;19930;-57
2022/11/12 02:47:13;;;;;;;;;;;;;;;5.08;84.74;99618.66;5141423;27;19976;-56
2022/11/12 02:50:00;;;;;;;;;;;;;;;5.13;84.40;99615.28;5131327;27;19973;-57
2022/11/12 02:52:47;;;;;;;;;;;;;;;5.13;84.92;99623.34;5134160;27;19930;-55
2022/11/12 02:55:34;;;;;;;;;;;;;;;5.17;84.36;99622.66;5127493;27;20021;-57
2022/11/12 02:58:22;;;;;;;;;;;;;;;5.05;84.62;99615.59;5135275;27;19951;-57
2022/11/12 03:01:15;;;;;;;;;;;;;;;5.18;84.15;99618.91;5128058;27;19930;-57
2022/11/12 03:04:01;;;;;;;;;;;;;;;5.11;84.21;99625.44;5133127;27;20398;-57
2022/11/12 03:06:48;;;;;;;;;;;;;;;5.09;84.03;99636.47;5131748;27;20664;-56
2022/11/12 03:09:35;;;;;;;;;;;;;;;5.11;84.39;99637.03;5124005;27;19950;-57
2022/11/12 03:12:21;;;;;;;;;;;;;;;5.05;84.49;99632.59;5136752;27;20005;-56
2022/11/12 03:15:10;;;;;;;;;;;;;;;5.07;84.62;99633.19;5128403;27;20378;-57
2022/11/12 03:17:57;;;;;;;;;;;;;;;4.98;84.88;99639.97;5130178;27;20064;-58
2022/11/12 03:20:44;;;;;;;;;;;;;;;5.08;84.55;99634.81;5130977;27;19946;-57
2022/11/12 03:23:31;;;;;;;;;;;;;;;5.03;84.39;99637.41;5129442;27;20016;-58
2022/11/12 03:26:18;;;;;;;;;;;;;;;4.99;84.65;99634.34;5129724;27;20354;-55
2022/11/12 03:29:08;;;;;;;;;;;;;;;4.99;85.15;99636.22;5127313;27;20001;-58
2022/11/12 03:31:57;;;;;;;;;;;;;;;5.01;84.69;99639.50;5132139;27;20296;-57
2022/11/12 03:34:43;;;;;;;;;;;;;;;5.05;84.83;99632.59;5128967;27;20287;-57
2022/11/12 03:37:35;;;;;;;;;;;;;;;5.05;84.60;99634.47;5127222;27;19930;-57
2022/11/12 03:40:22;;;;;;;;;;;;;;;5.07;84.61;99629.69;5121744;27;19930;-56
2022/11/12 03:43:09;;;;;;;;;;;;;;;5.02;84.59;99624.97;5131795;27;19927;-57
2022/11/12 03:45:55;;;;;;;;;;;;;;;5.00;84.74;99633.28;5126340;27;19946;-57
2022/11/12 03:48:43;;;;;;;;;;;;;;;5.05;84.75;99634.47;5124836;27;20011;-57
2022/11/12 03:51:30;;;;;;;;;;;;;;;5.00;84.94;99637.84;5126080;27;19934;-57
2022/11/12 03:54:18;;;;;;;;;;;;;;;5.02;84.90;99635.75;5126784;27;20064;-57
2022/11/12 03:57:05;;;;;;;;;;;;;;;4.97;84.70;99632.94;5119406;27;19934;-57
2022/11/12 04:00:16;;;;;;;;;;;;;;;4.94;84.76;99633.41;5115362;27;19930;-57
2022/11/12 04:03:03;;;;;;;;;;;;;;;4.89;84.96;99631.38;5131513;27;19967;-57
2022/11/12 04:08:56;;;;;;;;;;;;;;;4.84;85.28;99628.56;5124946;27;19930;-57
2022/11/12 04:11:43;;;;;;;;;;;;;;;4.80;85.12;99630.13;5129828;27;19930;-57
2022/11/12 04:14:35;;;;;;;;;;;;;;;4.65;85.89;99635.94;5122572;27;20085;-57
2022/11/12 04:23:32;;;;;;;;;;;;;;;4.32;86.62;99627.53;5131575;27;19934;-57
2022/11/12 04:26:23;;;;;;;;;;;;;;;4.25;86.68;99630.28;5125500;27;20068;-55
2022/11/12 04:32:24;;;;;;;;;;;;;;;4.16;86.80;99637.06;5129390;27;20395;-56
2022/11/12 04:35:10;;;;;;;;;;;;;;;4.20;86.66;99632.84;5142571;27;19972;-55
2022/11/12 04:38:04;;;;;;;;;;;;;;;4.25;86.46;99634.84;5127084;27;19934;-57
2022/11/12 04:47:01;;;;;;;;;;;;;;;4.28;86.17;99637.91;5130194;27;19930;-56
2022/11/12 04:49:47;;;;;;;;;;;;;;;4.33;85.70;99634.53;5132405;27;20492;-57
2022/11/12 04:52:34;;;;;;;;;;;;;;;4.29;85.84;99641.41;5127279;27;19930;-57
2022/11/12 04:55:21;;;;;;;;;;;;;;;4.34;85.83;99639.69;5130361;27;19931;-57
2022/11/12 04:58:09;;;;;;;;;;;;;;;4.37;86.16;99643.81;5132396;27;19931;-57
2022/11/12 05:00:55;;;;;;;;;;;;;;;4.38;85.81;99642.75;5134040;27;20399;-57
2022/11/12 05:03:42;;;;;;;;;;;;;;;4.38;85.71;99643.56;5130734;27;20395;-55
2022/11/12 05:09:33;;;;;;;;;;;;;;;4.37;85.86;99641.13;5127326;27;19930;-57
2022/11/12 05:12:20;;;;;;;;;;;;;;;4.31;86.07;99642.00;5143180;27;19930;-57
2022/11/12 05:15:10;;;;;;;;;;;;;;;4.31;86.11;99644.69;5121771;27;20292;-57
2022/11/12 05:17:56;;;;;;;;;;;;;;;4.31;85.67;99648.19;5131628;27;19930;-57
2022/11/12 05:20:43;;;;;;;;;;;;;;;4.28;85.73;99631.72;5131032;27;19931;-57
2022/11/12 05:23:30;;;;;;;;;;;;;;;4.18;86.37;99641.13;5123399;27;20288;-57
2022/11/12 05:26:17;;;;;;;;;;;;;;;4.12;85.96;99642.06;5124627;27;19977;-57
2022/11/12 05:32:16;;;;;;;;;;;;;;;4.26;85.66;99641.84;5118662;27;19927;-57
2022/11/12 05:35:02;;;;;;;;;;;;;;;4.25;85.65;99637.53;5134255;27;20330;-57
2022/11/12 05:37:49;;;;;;;;;;;;;;;4.10;85.79;99640.63;5125485;27;19949;-55
2022/11/12 05:40:35;;;;;;;;;;;;;;;4.13;85.65;99643.69;5123858;27;20027;-57
2022/11/12 05:43:22;;;;;;;;;;;;;;;3.96;86.11;99636.47;5124563;27;20013;-56
2022/11/12 05:46:09;;;;;;;;;;;;;;;4.03;85.87;99637.19;5123894;28;20806;-58
2022/11/12 05:48:57;;;;;;;;;;;;;;;3.89;86.64;99640.06;5127291;27;19989;-57
2022/11/12 05:51:44;;;;;;;;;;;;;;;3.89;86.12;99648.13;5126195;28;20647;-57
2022/11/12 05:54:31;;;;;;;;;;;;;;;3.77;86.66;99649.09;5115143;27;19931;-57
2022/11/12 05:57:18;;;;;;;;;;;;;;;3.77;86.75;99652.59;5119697;27;19930;-54
2022/11/12 06:00:05;;;;;;;;;;;;;;;3.41;87.81;99653.44;5127278;27;20308;-56
2022/11/12 06:02:51;;;;;;;;;;;;;;;3.71;87.43;99652.69;5121972;27;20316;-58
2022/11/12 06:08:50;;;;;;;;;;;;;;;3.58;87.49;99650.97;5133021;27;19950;-56
2022/11/12 06:12:05;;;;;;;;;;;;;;;3.61;88.07;99654.00;5135527;27;19935;-57
2022/11/12 06:14:52;;;;;;;;;;;;;;;3.68;87.53;99662.84;5120984;27;20050;-57
2022/11/12 06:17:39;;;;;;;;;;;;;;;3.76;87.46;99664.41;5119045;27;19930;-57
2022/11/12 06:20:26;;;;;;;;;;;;;;;3.83;87.61;99670.53;5130441;27;20037;-57
2022/11/12 06:23:15;;;;;;;;;;;;;;;3.72;87.86;99662.38;5133048;27;20026;-58
2022/11/12 06:26:02;;;;;;;;;;;;;;;3.37;89.65;99676.41;5119262;27;20541;-56
2022/11/12 06:28:48;;;;;;;;;;;;;;;3.57;89.16;99673.50;5130316;27;19930;-57
2022/11/12 06:31:35;;;;;;;;;;;;;;;3.65;88.90;99678.59;5121785;27;19930;-57
2022/11/12 06:34:22;;;;;;;;;;;;;;;3.59;88.96;99684.84;5129155;27;19934;-57
2022/11/12 06:37:33;;;;;;;;;;;;;;;3.68;89.37;99667.41;5125024;27;19946;-58
2022/11/12 06:40:21;;;;;;;;;;;;;;;3.65;89.65;99676.72;5124766;27;19931;-56
2022/11/12 06:43:08;;;;;;;;;;;;;;;3.54;90.01;99673.97;5134617;27;20303;-59
2022/11/12 06:45:58;;;;;;;;;;;;;;;3.38;90.19;99673.47;5129614;27;19937;-57
2022/11/12 06:48:44;;;;;;;;;;;;;;;3.52;89.74;99678.75;5132809;27;19934;-57
2022/11/12 06:51:31;;;;;;;;;;;;;;;3.63;89.98;99681.50;5118215;27;20082;-57
2022/11/12 06:54:18;;;;;;;;;;;;;;;3.71;89.38;99676.88;5133186;27;19930;-55
2022/11/12 06:57:07;;;;;;;;;;;;;;;3.78;89.04;99677.63;5130115;27;19937;-56
2022/11/12 06:59:54;;;;;;;;;;;;;;;3.71;89.33;99676.88;5132425;27;19930;-57
2022/11/12 07:02:41;;;;;;;;;;;;;;;3.82;88.94;99684.19;5125207;27;19930;-57
2022/11/12 07:05:27;;;;;;;;;;;;;;;3.89;88.41;99684.97;5122972;27;19958;-57
2022/11/12 07:08:14;;;;;;;;;;;;;;;3.77;88.83;99687.56;5128734;27;20027;-57
2022/11/12 07:11:01;;;;;;;;;;;;;;;3.76;88.74;99685.91;5133482;27;20016;-57
2022/11/12 07:14:12;;;;;;;;;;;;;;;3.90;88.80;99686.59;5130429;27;19989;-57
2022/11/12 07:17:01;;;;;;;;;;;;;;;3.97;89.04;99687.34;5126255;27;19930;-57
2022/11/12 07:19:51;;;;;;;;;;;;;;;3.84;88.11;99688.31;5124417;27;19934;-57
2022/11/12 07:22:37;;;;;;;;;;;;;;;3.96;89.04;99685.69;5119635;27;19935;-57
2022/11/12 07:25:24;;;;;;;;;;;;;;;3.87;88.28;99693.22;5123564;27;19930;-57
2022/11/12 07:28:11;;;;;;;;;;;;;;;3.63;89.99;99697.63;5126069;27;19930;-57
2022/11/12 07:30:58;;;;;;;;;;;;;;;3.72;89.74;99694.63;5126531;27;19934;-58
2022/11/12 07:33:47;;;;;;;;;;;;;;;3.68;90.03;99688.91;5116402;27;19931;-58
2022/11/12 07:36:34;;;;;;;;;;;;;;;3.70;90.23;99692.19;5131683;27;20288;-57
2022/11/12 07:39:21;;;;;;;;;;;;;;;3.87;90.65;99687.03;5128903;27;19976;-58
2022/11/12 07:42:07;;;;;;;;;;;;;;;4.01;89.84;99688.53;5126935;27;19934;-57
2022/11/12 07:44:54;;;;;;;;;;;;;;;4.09;88.85;99685.53;5126646;27;19931;-58
2022/11/12 07:47:40;;;;;;;;;;;;;;;4.16;88.21;99686.28;5128467;27;19935;-57
2022/11/12 07:50:28;;;;;;;;;;;;;;;3.82;88.57;99689.56;5124505;27;20027;-58
2022/11/12 07:53:14;;;;;;;;;;;;;;;3.55;89.68;99694.41;5119747;27;19934;-57
2022/11/12 07:56:03;;;;;;;;;;;;;;;3.77;90.87;99692.09;5130625;27;19976;-57
2022/11/12 07:58:50;;;;;;;;;;;;;;;3.79;90.33;99688.16;5126171;27;19930;-58
2022/11/12 08:01:38;;;;;;;;;;;;;;;3.82;89.85;99690.38;5118358;27;20461;-58
2022/11/12 08:04:24;;;;;;;;;;;;;;;4.02;89.07;99689.34;5123730;27;19923;-58
2022/11/12 08:07:12;;;;;;;;;;;;;;;4.05;89.12;99686.19;5135942;27;19976;-58
2022/11/12 08:09:59;;;;;;;;;;;;;;;4.28;88.25;99683.66;5126497;27;20243;-58
2022/11/12 08:12:46;;;;;;;;;;;;;;;4.43;86.61;99689.44;5129051;27;19934;-55
2022/11/12 08:15:32;;;;;;;;;;;;;;;4.30;87.48;99683.41;5130927;27;20041;-58
2022/11/12 08:18:18;;;;;;;;;;;;;;;4.65;87.03;99684.38;5121364;27;20040;-57
2022/11/12 08:21:06;;;;;;;;;;;;;;;4.97;85.51;99687.63;5126265;27;19935;-58
2022/11/12 08:23:54;;;;;;;;;;;;;;;4.98;85.54;99693.84;5137262;27;19930;-57
2022/11/12 08:26:42;;;;;;;;;;;;;;;4.54;86.13;99685.16;5138337;27;19954;-57
2022/11/12 08:29:29;;;;;;;;;;;;;;;4.80;85.97;99692.03;5130183;27;20705;-58
2022/11/12 08:32:17;;;;;;;;;;;;;;;4.88;86.17;99691.69;5131637;27;19931;-58
2022/11/12 08:35:06;;;;;;;;;;;;;;;5.28;85.83;99692.97;5129048;27;20065;-57
2022/11/12 08:37:57;;;;;;;;;;;;;;;5.30;85.60;99698.91;5125637;27;19929;-56
2022/11/12 08:40:45;;;;;;;;;;;;;;;5.34;84.29;99694.72;5127743;27;19946;-57
2022/11/12 08:43:34;;;;;;;;;;;;;;;5.54;83.66;99692.50;5125004;27;20011;-59
2022/11/12 08:46:21;;;;;;;;;;;;;;;5.80;83.33;99696.56;5118671;27;20104;-58
2022/11/12 08:49:07;;;;;;;;;;;;;;;5.81;82.74;99697.41;5122167;27;19934;-62
2022/11/12 08:51:54;;;;;;;;;;;;;;;5.97;81.84;99694.00;5120048;27;20291;-58
2022/11/12 08:54:41;;;;;;;;;;;;;;;5.96;81.97;99684.25;5120909;27;19993;-58
2022/11/12 08:57:29;;;;;;;;;;;;;;;6.03;81.85;99682.25;5114628;27;20004;-57
2022/11/12 09:00:17;;;;;;;;;;;;;;;6.08;82.39;99682.38;5120788;27;20336;-58
2022/11/12 09:03:05;;;;;;;;;;;;;;;6.21;81.66;99682.09;5089310;28;19942;-58
2022/11/12 09:05:54;;;;;;;;;;;;;;;6.03;82.46;99684.97;5103835;27;20347;-58
2022/11/12 09:08:41;;;;;;;;;;;;;;;6.21;82.08;99690.19;5094502;28;20296;-57
2022/11/12 09:11:27;;;;;;;;;;;;;;;6.22;82.39;99678.31;5103051;27;20291;-57
2022/11/12 09:14:15;;;;;;;;;;;;;;;5.70;83.40;99680.16;5101577;27;19937;-57
2022/11/12 09:17:02;;;;;;;;;;;;;;;5.69;83.68;99683.91;5100311;27;20400;-57
2022/11/12 09:19:51;;;;;;;;;;;;;;;5.94;84.16;99680.97;5111425;27;20500;-57
2022/11/12 09:22:38;;;;;;;;;;;;;;;6.06;83.61;99679.06;5111624;27;19981;-57
2022/11/12 09:25:25;;;;;;;;;;;;;;;6.16;83.12;99681.16;5114484;27;19929;-58
2022/11/12 09:28:12;;;;;;;;;;;;;;;6.54;82.06;99669.75;5099272;27;19931;-57
2022/11/12 09:31:01;;;;;;;;;;;;;;;6.37;82.27;99679.69;5101990;28;20113;-58
2022/11/12 09:33:47;;;;;;;;;;;;;;;6.61;82.01;99673.16;5110563;27;20001;-57
2022/11/12 09:36:34;;;;;;;;;;;;;;;6.48;81.67;99679.63;5114684;27;19930;-58
2022/11/12 09:39:24;;;;;;;;;;;;;;;6.66;81.27;99681.34;5102816;28;19931;-58
2022/11/12 09:42:13;;;;;;;;;;;;;;;6.40;82.29;99674.63;5111828;27;19930;-58
2022/11/12 09:48:12;;;;;;;;;;;;;;;6.79;81.21;99677.50;5097596;28;19931;-57
2022/11/12 09:50:59;;;;;;;;;;;;;;;6.85;80.81;99671.13;5107015;28;20390;-58
2022/11/12 09:53:48;;;;;;;;;;;;;;;6.87;81.21;99673.56;5100561;28;19930;-58
2022/11/12 09:57:00;;;;;;;;;;;;;;;7.04;80.92;99674.44;5091778;28;19931;-58
2022/11/12 09:59:49;;;;;;;;;;;;;;;7.39;80.20;99673.34;5092828;28;19939;-57
2022/11/12 10:02:38;;;;;;;;;;;;;;;7.16;80.55;99680.56;5099713;28;20005;-57
2022/11/12 10:05:27;;;;;;;;;;;;;;;7.57;79.67;99673.09;5111526;28;19931;-57
2022/11/12 10:08:20;;;;;;;;;;;;;;;7.54;79.52;99668.16;5095100;28;19971;-58
2022/11/12 10:11:13;;;;;;;;;;;;;;;7.57;79.97;99659.56;5119194;28;19930;-57
2022/11/12 10:14:27;;;;;;;;;;;;;;;7.66;78.88;99657.25;5104820;28;19930;-58
2022/11/12 10:17:15;;;;;;;;;;;;;;;7.43;79.38;99659.09;5116562;27;19931;-58
2022/11/12 10:20:06;;;;;;;;;;;;;;;7.50;79.20;99651.63;5103324;28;20020;-58
2022/11/12 10:22:59;;;;;;;;;;;;;;;7.45;79.47;99658.84;5112165;27;19938;-57
2022/11/12 10:25:48;;;;;;;;;;;;;;;7.58;78.99;99650.38;5108144;28;19930;-56
2022/11/12 10:28:35;;;;;;;;;;;;;;;7.72;79.16;99648.94;5112811;28;19960;-58
2022/11/12 10:31:24;;;;;;;;;;;;;;;7.56;80.00;99638.97;5100364;28;20064;-58
2022/11/12 10:34:14;;;;;;;;;;;;;;;7.61;79.80;99644.47;5105397;28;20355;-56
2022/11/12 10:37:01;;;;;;;;;;;;;;;7.78;79.46;99637.16;5099591;28;20149;-57
2022/11/12 10:39:49;;;;;;;;;;;;;;;7.96;79.27;99621.66;5103288;28;20288;-57
2022/11/12 10:42:37;;;;;;;;;;;;;;;8.09;78.70;99626.66;5111840;27;19934;-56
2022/11/12 10:45:23;;;;;;;;;;;;;;;8.21;78.09;99619.25;5104518;28;20308;-57
2022/11/12 10:48:20;;;;;;;;;;;;;;;8.30;78.15;99625.84;5105080;28;20683;-57
2022/11/12 10:54:29;;;;;;;;;;;;;;;8.48;77.98;99619.31;5109339;28;19977;-58
2022/11/12 10:57:22;;;;;;;;;;;;;;;8.65;77.04;99619.19;5104385;27;20050;-57
2022/11/12 11:00:14;;;;;;;;;;;;;;;8.74;75.83;99612.22;5114755;27;20010;-58
2022/11/12 11:03:03;;;;;;;;;;;;;;;8.77;75.42;99608.19;5132806;27;20076;-58
2022/11/12 11:05:57;;;;;;;;;;;;;;;8.90;74.75;99599.63;5128297;27;19942;-55
2022/11/12 11:08:45;;;;;;;;;;;;;;;9.02;74.73;99599.44;5125031;27;20399;-57
2022/11/12 11:11:31;;;;;;;;;;;;;;;9.14;73.58;99605.50;5128155;27;20391;-58
2022/11/12 11:14:26;;;;;;;;;;;;;;;9.07;74.04;99594.88;5118376;27;19930;-58
2022/11/12 11:17:16;;;;;;;;;;;;;;;9.11;73.50;99590.56;5124811;27;19930;-58
2022/11/12 11:20:04;;;;;;;;;;;;;;;9.31;73.84;99592.56;5132038;27;20291;-57
2022/11/12 11:22:52;;;;;;;;;;;;;;;9.23;74.06;99589.56;5132845;27;20387;-57
2022/11/12 11:25:38;;;;;;;;;;;;;;;9.49;73.75;99591.34;5129375;27;20400;-58
2022/11/12 11:28:28;;;;;;;;;;;;;;;9.67;72.74;99587.34;5120168;27;20076;-57
2022/11/12 11:31:17;;;;;;;;;;;;;;;9.77;71.24;99586.59;5129769;27;19930;-58
2022/11/12 11:34:10;;;;;;;;;;;;;;;9.88;71.33;99589.09;5137770;27;19946;-60
2022/11/12 11:36:59;;;;;;;;;;;;;;;9.93;71.49;99580.97;5125765;27;20405;-58
2022/11/12 11:39:48;;;;;;;;;;;;;;;9.93;71.10;99583.66;5124356;27;19938;-59
2022/11/12 11:42:41;;;;;;;;;;;;;;;9.93;70.93;99578.25;5131726;27;20299;-58
2022/11/12 11:45:36;;;;;;;;;;;;;;;9.98;71.19;99567.41;5134241;27;19930;-58
2022/11/12 11:48:28;;;;;;;;;;;;;;;9.88;70.31;99563.84;5127752;27;19976;-57
2022/11/12 11:51:24;;;;;;;;;;;;;;;9.98;70.00;99561.16;5129172;27;19934;-58
2022/11/12 11:54:15;;;;;;;;;;;;;;;10.06;70.18;99567.94;5130677;27;19933;-57
2022/11/12 11:57:02;;;;;;;;;;;;;;;10.07;70.57;99565.00;5124227;27;19930;-56
2022/11/12 11:59:56;;;;;;;;;;;;;;;10.25;69.57;99550.13;5120383;27;19929;-56
2022/11/12 12:02:47;;;;;;;;;;;;;;;10.37;70.34;99553.38;5126706;27;19929;-56
2022/11/12 12:05:38;;;;;;;;;;;;;;;10.30;68.83;99550.13;5132594;27;20381;-56
2022/11/12 12:08:25;;;;;;;;;;;;;;;10.44;69.33;99558.59;5129697;27;19931;-56
2022/11/12 12:11:15;;;;;;;;;;;;;;;10.53;68.25;99543.34;5126844;27;19930;-57
2022/11/12 12:14:16;;;;;;;;;;;;;;;10.30;68.17;99547.41;5119093;27;20040;-56
2022/11/12 12:17:04;;;;;;;;;;;;;;;10.56;68.39;99533.84;5122983;27;19977;-56
2022/11/12 12:19:55;;;;;;;;;;;;;;;10.72;67.65;99532.78;5128462;27;20413;-56
2022/11/12 12:22:45;;;;;;;;;;;;;;;10.75;67.50;99534.91;5131849;27;20291;-57
2022/11/12 12:25:32;;;;;;;;;;;;;;;10.70;67.64;99527.59;5129557;27;20014;-56
2022/11/12 12:28:22;;;;;;;;;;;;;;;10.86;67.75;99513.97;5124436;27;20019;-57
2022/11/12 12:31:11;;;;;;;;;;;;;;;10.79;66.88;99519.69;5121130;27;20702;-57
2022/11/12 12:34:01;;;;;;;;;;;;;;;10.75;67.05;99518.63;5131494;27;19931;-56
2022/11/12 12:40:29;;;;;;;;;;;;;;;10.92;67.77;99505.56;5124042;27;19985;-56
2022/11/12 12:43:18;;;;;;;;;;;;;;;10.92;68.27;99504.72;5124956;27;20437;-56
2022/11/12 12:46:04;;;;;;;;;;;;;;;10.95;68.40;99513.16;5132389;27;20410;-57
2022/11/12 12:48:53;;;;;;;;;;;;;;;10.96;67.45;99505.81;5130503;27;19953;-56
2022/11/12 12:51:40;;;;;;;;;;;;;;;11.01;67.82;99501.19;5121222;27;20029;-57
2022/11/12 12:54:45;;;;;;;;;;;;;;;11.01;67.12;99503.09;5116341;27;19976;-57
2022/11/12 12:57:35;;;;;;;;;;;;;;;11.06;66.66;99494.91;5119369;27;19931;-56
2022/11/12 13:00:26;;;;;;;;;;;;;;;11.05;66.58;99492.47;5127355;27;19946;-55
2022/11/12 13:03:13;;;;;;;;;;;;;;;11.03;67.86;99503.63;5127504;27;20284;-56
2022/11/12 13:06:14;;;;;;;;;;;;;;;10.98;66.58;99495.50;5128246;27;19954;-56
2022/11/12 13:09:02;;;;;;;;;;;;;;;10.96;66.16;99498.47;5126157;27;19946;-56
2022/11/12 13:15:08;;;;;;;;;;;;;;;11.11;66.06;99488.66;5121846;27;20052;-57
2022/11/12 13:17:55;;;;;;;;;;;;;;;11.15;66.50;99481.56;5128227;27;20376;-56
2022/11/12 13:20:42;;;;;;;;;;;;;;;11.17;67.31;99482.09;5122966;27;20045;-56
2022/11/12 13:26:50;;;;;;;;;;;;;;;11.12;66.45;99493.00;5126608;27;20426;-56
2022/11/12 13:29:41;;;;;;;;;;;;;;;11.10;68.08;99487.84;5120044;27;20032;-57
2022/11/12 13:32:31;;;;;;;;;;;;;;;11.12;66.54;99479.41;5119263;27;19930;-57
2022/11/12 13:35:42;;;;;;;;;;;;;;;11.07;66.96;99488.38;5124554;27;19976;-57
2022/11/12 13:38:34;;;;;;;;;;;;;;;11.08;68.59;99478.31;5125128;27;20399;-57
2022/11/12 13:42:46;;;;;;;;;;;;;;;11.06;67.04;99488.66;5123289;27;19930;-56
2022/11/12 13:44:29;;;;;;;;;;;;;;;11.02;67.02;99482.94;5128283;27;20033;-56
2022/11/12 13:47:16;;;;;;;;;;;;;;;10.94;68.47;99486.25;5128141;27;19934;-57
2022/11/12 13:50:04;;;;;;;;;;;;;;;10.94;68.87;99478.91;5131501;27;19931;-57
2022/11/12 13:52:51;;;;;;;;;;;;;;;10.92;69.32;99482.97;5127557;27;20175;-57
2022/11/12 13:55:38;;;;;;;;;;;;;;;10.87;69.29;99481.09;5121669;28;19934;-57
2022/11/12 13:58:28;;;;;;;;;;;;;;;10.85;69.66;99482.44;5119433;27;19984;-57
2022/11/12 14:01:40;;;;;;;;;;;;;;;10.84;69.85;99487.06;5121525;27;19931;-58
2022/11/12 14:04:27;;;;;;;;;;;;;;;10.79;69.99;99489.81;5125872;28;19930;-57
2022/11/12 14:07:27;;;;;;;;;;;;;;;10.75;70.20;99488.72;5123806;27;19991;-57
2022/11/12 14:10:18;;;;;;;;;;;;;;;10.72;70.50;99489.28;5130928;27;19931;-57
2022/11/12 14:13:18;;;;;;;;;;;;;;;10.76;70.58;99484.94;5120680;27;19931;-57
2022/11/12 14:16:09;;;;;;;;;;;;;;;10.72;70.90;99490.09;5120719;27;19950;-57
2022/11/12 14:19:06;;;;;;;;;;;;;;;10.64;71.13;99481.66;5147326;27;20033;-57
2022/11/12 14:22:02;;;;;;;;;;;;;;;10.57;71.65;99481.94;5123229;27;20043;-57
2022/11/12 14:24:52;;;;;;;;;;;;;;;10.53;71.93;99486.28;5130906;27;20410;-57
2022/11/12 14:27:39;;;;;;;;;;;;;;;10.45;72.04;99484.94;5121808;27;19931;-57
2022/11/12 14:30:26;;;;;;;;;;;;;;;10.42;72.30;99480.03;5125862;27;20391;-56
2022/11/12 14:33:19;;;;;;;;;;;;;;;10.42;72.44;99474.59;5140507;27;19923;-56
2022/11/12 14:36:07;;;;;;;;;;;;;;;10.22;73.08;99472.66;5139810;27;19946;-57
2022/11/12 14:38:55;;;;;;;;;;;;;;;10.19;73.09;99473.22;5119116;27;19931;-56
2022/11/12 14:41:44;;;;;;;;;;;;;;;10.20;73.01;99469.41;5142308;27;19946;-57
2022/11/12 14:44:32;;;;;;;;;;;;;;;10.13;73.94;99462.63;5133029;27;20017;-57
2022/11/12 14:47:19;;;;;;;;;;;;;;;10.09;73.70;99464.25;5136497;27;20007;-56
2022/11/12 14:50:06;;;;;;;;;;;;;;;10.03;73.97;99462.59;5131453;27;20477;-54
2022/11/12 14:52:54;;;;;;;;;;;;;;;10.03;74.17;99466.13;5126859;27;20008;-57
2022/11/12 14:55:41;;;;;;;;;;;;;;;9.92;74.55;99465.31;5141792;27;20076;-56
2022/11/12 14:58:30;;;;;;;;;;;;;;;9.80;75.34;99462.03;5125977;27;20440;-56
2022/11/12 15:01:41;;;;;;;;;;;;;;;9.80;75.55;99464.75;5125555;27;19976;-56
2022/11/12 15:04:51;;;;;;;;;;;;;;;9.72;75.91;99454.41;5127197;27;20056;-56
2022/11/12 15:07:51;;;;;;;;;;;;;;;9.61;76.48;99452.75;5124799;27;19939;-57
2022/11/12 15:10:39;;;;;;;;;;;;;;;9.51;77.16;99447.28;5127098;27;19938;-56
2022/11/12 15:13:26;;;;;;;;;;;;;;;9.39;77.81;99433.97;5136175;27;19930;-59
2022/11/12 15:16:18;;;;;;;;;;;;;;;9.34;77.98;99432.03;5133325;27;19929;-58
2022/11/12 15:19:07;;;;;;;;;;;;;;;9.30;78.31;99436.34;5130967;27;19939;-57
2022/11/12 15:21:54;;;;;;;;;;;;;;;9.24;78.69;99434.72;5141000;27;19953;-56
2022/11/12 15:24:43;;;;;;;;;;;;;;;9.16;79.07;99429.78;5131572;27;20384;-56
2022/11/12 15:27:34;;;;;;;;;;;;;;;9.09;79.43;99429.22;5133650;27;20437;-56
2022/11/12 15:30:23;;;;;;;;;;;;;;;9.07;79.58;99423.25;5134173;27;19931;-56
2022/11/12 15:33:17;;;;;;;;;;;;;;;9.01;79.66;99427.03;5124557;27;19931;-57
2022/11/12 15:36:04;;;;;;;;;;;;;;;8.93;80.17;99425.63;5121164;27;20062;-56
2022/11/12 15:38:51;;;;;;;;;;;;;;;8.85;80.58;99429.66;5121629;27;19931;-57
2022/11/12 15:41:38;;;;;;;;;;;;;;;8.81;80.76;99428.53;5127777;27;19934;-57